sensor_id;sensor_type;location;lat;lon;timestamp;P1;durP1;ratioP1;P2;durP2;ratioP2
7426;SDS011;3755;59.316;18.092;2023-10-31T00:02:17;12.47;;;4.80;;
7426;SDS011;3755;59.316;18.092;2023-10-31T00:04:46;11.57;;;4.75;;
7426;SDS011;3755;59.316;18.092;2023-10-31T00:07:13;13.13;;;4.90;;
7426;SDS011;3755;59.316;18.092;2023-10-31T00:09:40;12.70;;;4.50;;
7426;SDS011;3755;59.316;18.092;2023-10-31T00:12:07;14.27;;;5.00;;
7426;SDS011;3755;59.316;18.092;2023-10-31T00:14:34;11.20;;;4.63;;
7426;SDS011;3755;59.316;18.092;2023-10-31T00:17:01;13.15;;;4.40;;
7426;SDS011;3755;59.316;18.092;2023-10-31T00:19:28;10.73;;;4.68;;
7426;SDS011;3755;59.316;18.092;2023-10-31T00:21:56;14.43;;;4.70;;
7426;SDS011;3755;59.316;18.092;2023-10-31T00:24:23;12.90;;;4.57;;
7426;SDS011;3755;59.316;18.092;2023-10-31T00:26:51;8.85;;;4.25;;
7426;SDS011;3755;59.316;18.092;2023-10-31T00:29:18;12.77;;;4.75;;
7426;SDS011;3755;59.316;18.092;2023-10-31T00:31:45;10.98;;;4.78;;
7426;SDS011;3755;59.316;18.092;2023-10-31T00:34:12;18.80;;;4.83;;
7426;SDS011;3755;59.316;18.092;2023-10-31T00:36:39;12.05;;;3.85;;
7426;SDS011;3755;59.316;18.092;2023-10-31T00:39:07;14.27;;;3.90;;
7426;SDS011;3755;59.316;18.092;2023-10-31T00:41:35;10.07;;;4.03;;
7426;SDS011;3755;59.316;18.092;2023-10-31T00:44:02;8.90;;;2.80;;
7426;SDS011;3755;59.316;18.092;2023-10-31T00:46:29;15.25;;;3.75;;
7426;SDS011;3755;59.316;18.092;2023-10-31T00:48:56;13.15;;;2.95;;
7426;SDS011;3755;59.316;18.092;2023-10-31T00:51:23;8.55;;;3.38;;
7426;SDS011;3755;59.316;18.092;2023-10-31T00:53:50;15.70;;;4.10;;
7426;SDS011;3755;59.316;18.092;2023-10-31T00:56:18;9.43;;;3.42;;
7426;SDS011;3755;59.316;18.092;2023-10-31T00:58:45;14.25;;;3.88;;
7426;SDS011;3755;59.316;18.092;2023-10-31T01:01:13;6.93;;;2.55;;
7426;SDS011;3755;59.316;18.092;2023-10-31T01:03:41;8.35;;;3.28;;
7426;SDS011;3755;59.316;18.092;2023-10-31T01:06:08;13.17;;;3.27;;
7426;SDS011;3755;59.316;18.092;2023-10-31T01:08:35;10.13;;;3.42;;
7426;SDS011;3755;59.316;18.092;2023-10-31T01:11:02;7.35;;;2.72;;
7426;SDS011;3755;59.316;18.092;2023-10-31T01:13:31;8.40;;;3.30;;
7426;SDS011;3755;59.316;18.092;2023-10-31T01:15:58;7.10;;;2.53;;
7426;SDS011;3755;59.316;18.092;2023-10-31T01:18:25;9.80;;;3.07;;
7426;SDS011;3755;59.316;18.092;2023-10-31T01:20:52;9.83;;;3.37;;
7426;SDS011;3755;59.316;18.092;2023-10-31T01:23:19;8.57;;;2.45;;
7426;SDS011;3755;59.316;18.092;2023-10-31T01:25:46;11.45;;;3.42;;
7426;SDS011;3755;59.316;18.092;2023-10-31T01:28:12;7.70;;;2.33;;
7426;SDS011;3755;59.316;18.092;2023-10-31T01:30:41;11.45;;;2.92;;
7426;SDS011;3755;59.316;18.092;2023-10-31T01:33:08;7.32;;;2.95;;
7426;SDS011;3755;59.316;18.092;2023-10-31T01:35:35;5.78;;;2.40;;
7426;SDS011;3755;59.316;18.092;2023-10-31T01:38:01;5.85;;;2.30;;
7426;SDS011;3755;59.316;18.092;2023-10-31T01:40:28;10.32;;;2.65;;
7426;SDS011;3755;59.316;18.092;2023-10-31T01:42:56;7.13;;;2.47;;
7426;SDS011;3755;59.316;18.092;2023-10-31T01:45:22;10.88;;;2.83;;
7426;SDS011;3755;59.316;18.092;2023-10-31T01:47:51;14.00;;;2.92;;
7426;SDS011;3755;59.316;18.092;2023-10-31T01:50:18;9.30;;;2.73;;
7426;SDS011;3755;59.316;18.092;2023-10-31T01:52:45;11.02;;;2.85;;
7426;SDS011;3755;59.316;18.092;2023-10-31T01:55:12;11.03;;;3.23;;
7426;SDS011;3755;59.316;18.092;2023-10-31T01:57:41;7.47;;;2.30;;
7426;SDS011;3755;59.316;18.092;2023-10-31T02:00:10;9.40;;;2.85;;
7426;SDS011;3755;59.316;18.092;2023-10-31T02:02:39;7.18;;;2.83;;
7426;SDS011;3755;59.316;18.092;2023-10-31T02:05:09;10.88;;;3.15;;
7426;SDS011;3755;59.316;18.092;2023-10-31T02:07:36;11.07;;;2.80;;
7426;SDS011;3755;59.316;18.092;2023-10-31T02:10:03;7.10;;;2.67;;
7426;SDS011;3755;59.316;18.092;2023-10-31T02:12:31;8.88;;;3.42;;
7426;SDS011;3755;59.316;18.092;2023-10-31T02:14:59;11.00;;;2.90;;
7426;SDS011;3755;59.316;18.092;2023-10-31T02:17:26;8.43;;;2.67;;
7426;SDS011;3755;59.316;18.092;2023-10-31T02:19:53;10.45;;;2.83;;
7426;SDS011;3755;59.316;18.092;2023-10-31T02:22:21;8.07;;;3.65;;
7426;SDS011;3755;59.316;18.092;2023-10-31T02:24:48;13.43;;;3.20;;
7426;SDS011;3755;59.316;18.092;2023-10-31T02:27:15;14.75;;;3.35;;
7426;SDS011;3755;59.316;18.092;2023-10-31T02:29:42;8.50;;;2.97;;
7426;SDS011;3755;59.316;18.092;2023-10-31T02:32:09;10.95;;;3.35;;
7426;SDS011;3755;59.316;18.092;2023-10-31T02:34:36;14.10;;;3.60;;
7426;SDS011;3755;59.316;18.092;2023-10-31T02:37:03;13.07;;;3.17;;
7426;SDS011;3755;59.316;18.092;2023-10-31T02:39:32;7.97;;;2.90;;
7426;SDS011;3755;59.316;18.092;2023-10-31T02:41:59;8.20;;;2.90;;
7426;SDS011;3755;59.316;18.092;2023-10-31T02:44:26;9.25;;;3.47;;
7426;SDS011;3755;59.316;18.092;2023-10-31T02:46:53;9.75;;;2.95;;
7426;SDS011;3755;59.316;18.092;2023-10-31T02:49:20;10.07;;;3.28;;
7426;SDS011;3755;59.316;18.092;2023-10-31T02:51:47;11.38;;;3.10;;
7426;SDS011;3755;59.316;18.092;2023-10-31T02:54:14;15.13;;;3.40;;
7426;SDS011;3755;59.316;18.092;2023-10-31T02:56:42;11.18;;;3.55;;
7426;SDS011;3755;59.316;18.092;2023-10-31T02:59:09;7.63;;;3.20;;
7426;SDS011;3755;59.316;18.092;2023-10-31T03:01:36;6.88;;;3.35;;
7426;SDS011;3755;59.316;18.092;2023-10-31T03:04:03;11.18;;;3.60;;
7426;SDS011;3755;59.316;18.092;2023-10-31T03:06:31;15.67;;;4.00;;
7426;SDS011;3755;59.316;18.092;2023-10-31T03:08:58;10.10;;;3.45;;
7426;SDS011;3755;59.316;18.092;2023-10-31T03:11:25;10.00;;;3.17;;
7426;SDS011;3755;59.316;18.092;2023-10-31T03:13:54;12.60;;;4.28;;
7426;SDS011;3755;59.316;18.092;2023-10-31T03:16:21;10.10;;;3.47;;
7426;SDS011;3755;59.316;18.092;2023-10-31T03:18:48;11.55;;;3.83;;
7426;SDS011;3755;59.316;18.092;2023-10-31T03:21:16;10.57;;;4.05;;
7426;SDS011;3755;59.316;18.092;2023-10-31T03:23:43;14.00;;;4.60;;
7426;SDS011;3755;59.316;18.092;2023-10-31T03:26:14;15.18;;;4.43;;
7426;SDS011;3755;59.316;18.092;2023-10-31T03:28:41;13.48;;;4.20;;
7426;SDS011;3755;59.316;18.092;2023-10-31T03:31:10;9.20;;;4.00;;
7426;SDS011;3755;59.316;18.092;2023-10-31T03:33:37;13.38;;;3.97;;
7426;SDS011;3755;59.316;18.092;2023-10-31T03:36:04;16.87;;;4.07;;
7426;SDS011;3755;59.316;18.092;2023-10-31T03:38:31;9.80;;;4.05;;
7426;SDS011;3755;59.316;18.092;2023-10-31T03:40:58;9.40;;;4.20;;
7426;SDS011;3755;59.316;18.092;2023-10-31T03:43:26;8.10;;;3.80;;
7426;SDS011;3755;59.316;18.092;2023-10-31T03:45:53;10.43;;;4.28;;
7426;SDS011;3755;59.316;18.092;2023-10-31T03:48:22;14.87;;;4.67;;
7426;SDS011;3755;59.316;18.092;2023-10-31T03:50:49;8.52;;;3.47;;
7426;SDS011;3755;59.316;18.092;2023-10-31T03:53:16;13.50;;;4.28;;
7426;SDS011;3755;59.316;18.092;2023-10-31T03:55:43;10.68;;;4.68;;
7426;SDS011;3755;59.316;18.092;2023-10-31T03:58:11;10.93;;;4.22;;
7426;SDS011;3755;59.316;18.092;2023-10-31T04:00:38;11.20;;;4.95;;
7426;SDS011;3755;59.316;18.092;2023-10-31T04:03:05;9.07;;;3.70;;
7426;SDS011;3755;59.316;18.092;2023-10-31T04:05:34;10.02;;;4.32;;
7426;SDS011;3755;59.316;18.092;2023-10-31T04:08:01;11.23;;;4.53;;
7426;SDS011;3755;59.316;18.092;2023-10-31T04:10:28;11.88;;;4.40;;
7426;SDS011;3755;59.316;18.092;2023-10-31T04:12:55;9.52;;;4.07;;
7426;SDS011;3755;59.316;18.092;2023-10-31T04:15:22;12.70;;;4.38;;
7426;SDS011;3755;59.316;18.092;2023-10-31T04:17:49;11.73;;;4.43;;
7426;SDS011;3755;59.316;18.092;2023-10-31T04:20:16;13.50;;;4.25;;
7426;SDS011;3755;59.316;18.092;2023-10-31T04:22:44;8.15;;;4.47;;
7426;SDS011;3755;59.316;18.092;2023-10-31T04:25:11;11.55;;;4.47;;
7426;SDS011;3755;59.316;18.092;2023-10-31T04:27:38;11.00;;;4.07;;
7426;SDS011;3755;59.316;18.092;2023-10-31T04:30:05;10.32;;;4.20;;
7426;SDS011;3755;59.316;18.092;2023-10-31T04:32:33;11.65;;;4.57;;
7426;SDS011;3755;59.316;18.092;2023-10-31T04:35:00;13.25;;;3.95;;
7426;SDS011;3755;59.316;18.092;2023-10-31T04:37:27;9.30;;;4.32;;
7426;SDS011;3755;59.316;18.092;2023-10-31T04:39:55;12.40;;;4.22;;
7426;SDS011;3755;59.316;18.092;2023-10-31T04:42:22;14.13;;;3.73;;
7426;SDS011;3755;59.316;18.092;2023-10-31T04:44:49;12.27;;;4.22;;
7426;SDS011;3755;59.316;18.092;2023-10-31T04:47:16;12.68;;;4.32;;
7426;SDS011;3755;59.316;18.092;2023-10-31T04:49:43;18.90;;;4.73;;
7426;SDS011;3755;59.316;18.092;2023-10-31T04:52:10;11.30;;;4.20;;
7426;SDS011;3755;59.316;18.092;2023-10-31T04:54:37;10.95;;;4.07;;
7426;SDS011;3755;59.316;18.092;2023-10-31T04:57:05;7.67;;;4.17;;
7426;SDS011;3755;59.316;18.092;2023-10-31T04:59:32;13.32;;;4.68;;
7426;SDS011;3755;59.316;18.092;2023-10-31T05:01:59;17.58;;;4.50;;
7426;SDS011;3755;59.316;18.092;2023-10-31T05:04:26;11.10;;;4.85;;
7426;SDS011;3755;59.316;18.092;2023-10-31T05:06:54;13.48;;;5.28;;
7426;SDS011;3755;59.316;18.092;2023-10-31T05:09:21;11.30;;;4.43;;
7426;SDS011;3755;59.316;18.092;2023-10-31T05:11:48;9.45;;;3.75;;
7426;SDS011;3755;59.316;18.092;2023-10-31T05:14:16;13.60;;;4.15;;
7426;SDS011;3755;59.316;18.092;2023-10-31T05:16:43;15.50;;;4.38;;
7426;SDS011;3755;59.316;18.092;2023-10-31T05:19:10;7.68;;;3.90;;
7426;SDS011;3755;59.316;18.092;2023-10-31T05:21:37;9.70;;;4.57;;
7426;SDS011;3755;59.316;18.092;2023-10-31T05:24:05;12.77;;;4.35;;
7426;SDS011;3755;59.316;18.092;2023-10-31T05:26:32;14.25;;;4.65;;
7426;SDS011;3755;59.316;18.092;2023-10-31T05:28:59;11.95;;;4.60;;
7426;SDS011;3755;59.316;18.092;2023-10-31T05:31:28;9.25;;;4.53;;
7426;SDS011;3755;59.316;18.092;2023-10-31T05:33:55;15.77;;;4.75;;
7426;SDS011;3755;59.316;18.092;2023-10-31T05:36:23;11.98;;;4.40;;
7426;SDS011;3755;59.316;18.092;2023-10-31T05:38:51;12.38;;;4.53;;
7426;SDS011;3755;59.316;18.092;2023-10-31T05:41:18;10.90;;;4.80;;
7426;SDS011;3755;59.316;18.092;2023-10-31T05:43:45;12.43;;;4.43;;
7426;SDS011;3755;59.316;18.092;2023-10-31T05:46:12;10.00;;;5.88;;
7426;SDS011;3755;59.316;18.092;2023-10-31T05:48:41;13.40;;;4.93;;
7426;SDS011;3755;59.316;18.092;2023-10-31T05:51:13;9.68;;;4.72;;
7426;SDS011;3755;59.316;18.092;2023-10-31T05:53:41;10.85;;;4.28;;
7426;SDS011;3755;59.316;18.092;2023-10-31T05:56:10;11.05;;;4.50;;
7426;SDS011;3755;59.316;18.092;2023-10-31T05:58:39;11.45;;;4.60;;
7426;SDS011;3755;59.316;18.092;2023-10-31T06:01:07;15.52;;;5.22;;
7426;SDS011;3755;59.316;18.092;2023-10-31T06:03:33;12.73;;;4.10;;
7426;SDS011;3755;59.316;18.092;2023-10-31T06:06:02;11.75;;;3.85;;
7426;SDS011;3755;59.316;18.092;2023-10-31T06:08:29;10.23;;;3.83;;
7426;SDS011;3755;59.316;18.092;2023-10-31T06:10:56;11.25;;;3.95;;
7426;SDS011;3755;59.316;18.092;2023-10-31T06:13:23;10.90;;;4.10;;
7426;SDS011;3755;59.316;18.092;2023-10-31T06:15:51;10.90;;;4.45;;
7426;SDS011;3755;59.316;18.092;2023-10-31T06:18:18;12.60;;;5.00;;
7426;SDS011;3755;59.316;18.092;2023-10-31T06:20:45;12.35;;;4.18;;
7426;SDS011;3755;59.316;18.092;2023-10-31T06:23:14;10.10;;;4.15;;
7426;SDS011;3755;59.316;18.092;2023-10-31T06:25:41;9.73;;;4.60;;
7426;SDS011;3755;59.316;18.092;2023-10-31T06:28:08;14.18;;;4.25;;
7426;SDS011;3755;59.316;18.092;2023-10-31T06:30:36;12.40;;;4.22;;
7426;SDS011;3755;59.316;18.092;2023-10-31T06:33:03;14.23;;;4.18;;
7426;SDS011;3755;59.316;18.092;2023-10-31T06:35:32;15.70;;;4.10;;
7426;SDS011;3755;59.316;18.092;2023-10-31T06:37:59;14.15;;;4.38;;
7426;SDS011;3755;59.316;18.092;2023-10-31T06:40:28;16.70;;;4.85;;
7426;SDS011;3755;59.316;18.092;2023-10-31T06:42:55;11.95;;;4.90;;
7426;SDS011;3755;59.316;18.092;2023-10-31T06:45:22;10.18;;;4.13;;
7426;SDS011;3755;59.316;18.092;2023-10-31T06:47:49;16.70;;;6.53;;
7426;SDS011;3755;59.316;18.092;2023-10-31T06:50:17;13.02;;;5.38;;
7426;SDS011;3755;59.316;18.092;2023-10-31T06:52:44;16.30;;;5.95;;
7426;SDS011;3755;59.316;18.092;2023-10-31T06:55:11;12.00;;;4.90;;
7426;SDS011;3755;59.316;18.092;2023-10-31T06:57:40;13.60;;;4.50;;
7426;SDS011;3755;59.316;18.092;2023-10-31T07:00:08;11.27;;;5.05;;
7426;SDS011;3755;59.316;18.092;2023-10-31T07:02:36;20.92;;;6.03;;
7426;SDS011;3755;59.316;18.092;2023-10-31T07:05:03;14.77;;;4.90;;
7426;SDS011;3755;59.316;18.092;2023-10-31T07:07:31;12.40;;;4.25;;
7426;SDS011;3755;59.316;18.092;2023-10-31T07:09:58;13.27;;;5.57;;
7426;SDS011;3755;59.316;18.092;2023-10-31T07:12:25;14.05;;;5.35;;
7426;SDS011;3755;59.316;18.092;2023-10-31T07:14:53;16.67;;;5.80;;
7426;SDS011;3755;59.316;18.092;2023-10-31T07:17:20;18.40;;;5.70;;
7426;SDS011;3755;59.316;18.092;2023-10-31T07:19:47;13.68;;;5.35;;
7426;SDS011;3755;59.316;18.092;2023-10-31T07:22:14;19.65;;;5.80;;
7426;SDS011;3755;59.316;18.092;2023-10-31T07:24:41;12.75;;;6.05;;
7426;SDS011;3755;59.316;18.092;2023-10-31T07:27:09;17.15;;;6.05;;
7426;SDS011;3755;59.316;18.092;2023-10-31T07:29:38;19.13;;;6.60;;
7426;SDS011;3755;59.316;18.092;2023-10-31T07:32:08;17.20;;;6.97;;
7426;SDS011;3755;59.316;18.092;2023-10-31T07:34:35;15.57;;;5.97;;
7426;SDS011;3755;59.316;18.092;2023-10-31T07:37:02;19.00;;;6.55;;
7426;SDS011;3755;59.316;18.092;2023-10-31T07:39:29;18.15;;;7.03;;
7426;SDS011;3755;59.316;18.092;2023-10-31T07:41:56;22.52;;;7.40;;
7426;SDS011;3755;59.316;18.092;2023-10-31T07:44:23;25.00;;;7.28;;
7426;SDS011;3755;59.316;18.092;2023-10-31T07:46:50;19.17;;;7.75;;
7426;SDS011;3755;59.316;18.092;2023-10-31T07:49:19;20.27;;;7.70;;
7426;SDS011;3755;59.316;18.092;2023-10-31T07:51:46;14.80;;;7.25;;
7426;SDS011;3755;59.316;18.092;2023-10-31T07:54:13;25.10;;;7.93;;
7426;SDS011;3755;59.316;18.092;2023-10-31T07:56:41;17.08;;;5.78;;
7426;SDS011;3755;59.316;18.092;2023-10-31T07:59:09;15.70;;;5.55;;
7426;SDS011;3755;59.316;18.092;2023-10-31T08:01:36;20.33;;;5.57;;
7426;SDS011;3755;59.316;18.092;2023-10-31T08:04:03;21.02;;;5.95;;
7426;SDS011;3755;59.316;18.092;2023-10-31T08:06:32;17.17;;;5.50;;
7426;SDS011;3755;59.316;18.092;2023-10-31T08:08:59;17.07;;;5.73;;
7426;SDS011;3755;59.316;18.092;2023-10-31T08:11:26;10.30;;;4.93;;
7426;SDS011;3755;59.316;18.092;2023-10-31T08:13:53;14.48;;;5.40;;
7426;SDS011;3755;59.316;18.092;2023-10-31T08:16:20;8.27;;;4.53;;
7426;SDS011;3755;59.316;18.092;2023-10-31T08:18:48;16.08;;;5.65;;
7426;SDS011;3755;59.316;18.092;2023-10-31T08:21:15;14.40;;;5.03;;
7426;SDS011;3755;59.316;18.092;2023-10-31T08:23:43;13.50;;;4.87;;
7426;SDS011;3755;59.316;18.092;2023-10-31T08:26:11;13.18;;;5.28;;
7426;SDS011;3755;59.316;18.092;2023-10-31T08:28:38;13.30;;;5.60;;
7426;SDS011;3755;59.316;18.092;2023-10-31T08:31:06;15.63;;;6.57;;
7426;SDS011;3755;59.316;18.092;2023-10-31T08:33:33;14.02;;;5.82;;
7426;SDS011;3755;59.316;18.092;2023-10-31T08:36:00;15.27;;;5.37;;
7426;SDS011;3755;59.316;18.092;2023-10-31T08:38:27;20.27;;;6.63;;
7426;SDS011;3755;59.316;18.092;2023-10-31T08:40:56;17.42;;;6.32;;
7426;SDS011;3755;59.316;18.092;2023-10-31T08:43:24;14.63;;;6.65;;
7426;SDS011;3755;59.316;18.092;2023-10-31T08:45:51;16.88;;;6.30;;
7426;SDS011;3755;59.316;18.092;2023-10-31T08:48:18;14.63;;;6.20;;
7426;SDS011;3755;59.316;18.092;2023-10-31T08:50:45;15.88;;;6.40;;
7426;SDS011;3755;59.316;18.092;2023-10-31T08:53:12;16.45;;;6.25;;
7426;SDS011;3755;59.316;18.092;2023-10-31T08:55:39;17.63;;;6.00;;
7426;SDS011;3755;59.316;18.092;2023-10-31T08:58:10;12.48;;;5.25;;
7426;SDS011;3755;59.316;18.092;2023-10-31T09:00:38;21.52;;;6.47;;
7426;SDS011;3755;59.316;18.092;2023-10-31T09:03:05;22.08;;;6.78;;
7426;SDS011;3755;59.316;18.092;2023-10-31T09:05:32;21.73;;;6.32;;
7426;SDS011;3755;59.316;18.092;2023-10-31T09:07:59;17.70;;;6.57;;
7426;SDS011;3755;59.316;18.092;2023-10-31T09:10:27;21.38;;;6.72;;
7426;SDS011;3755;59.316;18.092;2023-10-31T09:12:54;34.97;;;11.07;;
7426;SDS011;3755;59.316;18.092;2023-10-31T09:15:22;30.45;;;8.27;;
7426;SDS011;3755;59.316;18.092;2023-10-31T09:17:49;27.45;;;9.18;;
7426;SDS011;3755;59.316;18.092;2023-10-31T09:20:16;19.80;;;7.38;;
7426;SDS011;3755;59.316;18.092;2023-10-31T09:22:43;29.33;;;8.65;;
7426;SDS011;3755;59.316;18.092;2023-10-31T09:25:10;32.42;;;9.35;;
7426;SDS011;3755;59.316;18.092;2023-10-31T09:27:37;30.92;;;11.05;;
7426;SDS011;3755;59.316;18.092;2023-10-31T09:30:05;26.55;;;10.05;;
7426;SDS011;3755;59.316;18.092;2023-10-31T09:32:35;24.98;;;10.95;;
7426;SDS011;3755;59.316;18.092;2023-10-31T09:35:02;39.00;;;10.52;;
7426;SDS011;3755;59.316;18.092;2023-10-31T09:37:29;19.90;;;5.93;;
7426;SDS011;3755;59.316;18.092;2023-10-31T09:39:56;24.20;;;7.45;;
7426;SDS011;3755;59.316;18.092;2023-10-31T09:42:23;20.13;;;7.80;;
7426;SDS011;3755;59.316;18.092;2023-10-31T09:44:50;10.67;;;5.13;;
7426;SDS011;3755;59.316;18.092;2023-10-31T09:47:17;17.95;;;6.90;;
7426;SDS011;3755;59.316;18.092;2023-10-31T09:49:47;23.50;;;9.05;;
7426;SDS011;3755;59.316;18.092;2023-10-31T09:52:14;27.95;;;9.68;;
7426;SDS011;3755;59.316;18.092;2023-10-31T09:54:42;37.30;;;9.88;;
7426;SDS011;3755;59.316;18.092;2023-10-31T09:57:11;17.95;;;5.80;;
7426;SDS011;3755;59.316;18.092;2023-10-31T09:59:39;18.17;;;5.77;;
7426;SDS011;3755;59.316;18.092;2023-10-31T10:02:06;22.90;;;10.40;;
7426;SDS011;3755;59.316;18.092;2023-10-31T10:04:33;23.90;;;8.00;;
7426;SDS011;3755;59.316;18.092;2023-10-31T10:07:02;19.13;;;7.20;;
7426;SDS011;3755;59.316;18.092;2023-10-31T10:09:30;12.15;;;4.57;;
7426;SDS011;3755;59.316;18.092;2023-10-31T10:11:58;10.38;;;3.67;;
7426;SDS011;3755;59.316;18.092;2023-10-31T10:14:26;9.82;;;3.72;;
7426;SDS011;3755;59.316;18.092;2023-10-31T10:16:54;12.57;;;4.13;;
7426;SDS011;3755;59.316;18.092;2023-10-31T10:19:22;11.57;;;3.55;;
7426;SDS011;3755;59.316;18.092;2023-10-31T10:21:51;6.10;;;3.63;;
7426;SDS011;3755;59.316;18.092;2023-10-31T10:24:20;9.17;;;4.67;;
7426;SDS011;3755;59.316;18.092;2023-10-31T10:26:48;18.67;;;6.43;;
7426;SDS011;3755;59.316;18.092;2023-10-31T10:29:16;15.40;;;6.73;;
7426;SDS011;3755;59.316;18.092;2023-10-31T10:31:44;22.98;;;7.40;;
7426;SDS011;3755;59.316;18.092;2023-10-31T10:34:11;13.45;;;5.35;;
7426;SDS011;3755;59.316;18.092;2023-10-31T10:36:41;13.85;;;5.28;;
7426;SDS011;3755;59.316;18.092;2023-10-31T10:39:13;10.03;;;4.40;;
7426;SDS011;3755;59.316;18.092;2023-10-31T10:41:46;11.40;;;4.83;;
7426;SDS011;3755;59.316;18.092;2023-10-31T10:44:19;14.47;;;4.50;;
7426;SDS011;3755;59.316;18.092;2023-10-31T10:46:50;10.27;;;4.20;;
7426;SDS011;3755;59.316;18.092;2023-10-31T10:49:24;12.77;;;4.07;;
7426;SDS011;3755;59.316;18.092;2023-10-31T10:51:52;12.50;;;4.85;;
7426;SDS011;3755;59.316;18.092;2023-10-31T10:54:24;11.30;;;4.83;;
7426;SDS011;3755;59.316;18.092;2023-10-31T10:56:55;26.20;;;5.80;;
7426;SDS011;3755;59.316;18.092;2023-10-31T10:59:34;16.67;;;5.70;;
7426;SDS011;3755;59.316;18.092;2023-10-31T11:02:07;13.13;;;5.60;;
7426;SDS011;3755;59.316;18.092;2023-10-31T11:04:36;16.33;;;6.25;;
7426;SDS011;3755;59.316;18.092;2023-10-31T11:07:03;23.38;;;7.32;;
7426;SDS011;3755;59.316;18.092;2023-10-31T11:09:31;20.80;;;7.10;;
7426;SDS011;3755;59.316;18.092;2023-10-31T11:12:01;20.50;;;8.02;;
7426;SDS011;3755;59.316;18.092;2023-10-31T11:14:28;14.88;;;7.32;;
7426;SDS011;3755;59.316;18.092;2023-10-31T11:16:57;15.13;;;6.85;;
7426;SDS011;3755;59.316;18.092;2023-10-31T11:19:27;14.20;;;7.30;;
7426;SDS011;3755;59.316;18.092;2023-10-31T11:21:56;14.25;;;4.15;;
7426;SDS011;3755;59.316;18.092;2023-10-31T11:24:26;11.48;;;4.22;;
7426;SDS011;3755;59.316;18.092;2023-10-31T11:26:53;11.82;;;3.75;;
7426;SDS011;3755;59.316;18.092;2023-10-31T11:29:26;12.63;;;4.00;;
7426;SDS011;3755;59.316;18.092;2023-10-31T11:31:54;12.37;;;5.30;;
7426;SDS011;3755;59.316;18.092;2023-10-31T11:34:22;11.90;;;4.70;;
7426;SDS011;3755;59.316;18.092;2023-10-31T11:36:52;11.70;;;4.20;;
7426;SDS011;3755;59.316;18.092;2023-10-31T11:39:19;9.30;;;3.67;;
7426;SDS011;3755;59.316;18.092;2023-10-31T11:41:53;6.87;;;2.60;;
7426;SDS011;3755;59.316;18.092;2023-10-31T11:44:22;6.53;;;3.13;;
7426;SDS011;3755;59.316;18.092;2023-10-31T11:46:51;5.17;;;3.00;;
7426;SDS011;3755;59.316;18.092;2023-10-31T11:49:28;6.13;;;2.60;;
7426;SDS011;3755;59.316;18.092;2023-10-31T11:52:16;6.13;;;2.43;;
7426;SDS011;3755;59.316;18.092;2023-10-31T11:54:43;8.77;;;3.10;;
7426;SDS011;3755;59.316;18.092;2023-10-31T11:57:10;6.63;;;2.43;;
7426;SDS011;3755;59.316;18.092;2023-10-31T11:59:37;5.97;;;2.90;;
7426;SDS011;3755;59.316;18.092;2023-10-31T12:02:13;6.13;;;2.67;;
7426;SDS011;3755;59.316;18.092;2023-10-31T12:04:41;5.80;;;3.53;;
7426;SDS011;3755;59.316;18.092;2023-10-31T12:07:08;8.75;;;3.83;;
7426;SDS011;3755;59.316;18.092;2023-10-31T12:09:45;12.35;;;4.18;;
7426;SDS011;3755;59.316;18.092;2023-10-31T12:12:13;6.77;;;3.30;;
7426;SDS011;3755;59.316;18.092;2023-10-31T12:14:40;3.72;;;2.33;;
7426;SDS011;3755;59.316;18.092;2023-10-31T12:17:07;2.90;;;1.77;;
7426;SDS011;3755;59.316;18.092;2023-10-31T12:19:36;4.38;;;2.25;;
7426;SDS011;3755;59.316;18.092;2023-10-31T12:22:11;3.10;;;1.83;;
7426;SDS011;3755;59.316;18.092;2023-10-31T12:24:39;6.77;;;2.60;;
7426;SDS011;3755;59.316;18.092;2023-10-31T12:27:06;4.53;;;2.57;;
7426;SDS011;3755;59.316;18.092;2023-10-31T12:29:33;5.57;;;2.20;;
7426;SDS011;3755;59.316;18.092;2023-10-31T12:32:00;4.70;;;1.70;;
7426;SDS011;3755;59.316;18.092;2023-10-31T12:34:28;3.10;;;1.50;;
7426;SDS011;3755;59.316;18.092;2023-10-31T12:37:01;6.15;;;1.65;;
7426;SDS011;3755;59.316;18.092;2023-10-31T12:39:28;3.30;;;1.53;;
7426;SDS011;3755;59.316;18.092;2023-10-31T12:41:56;3.93;;;1.20;;
7426;SDS011;3755;59.316;18.092;2023-10-31T12:44:24;5.33;;;2.40;;
7426;SDS011;3755;59.316;18.092;2023-10-31T12:46:53;8.30;;;2.00;;
7426;SDS011;3755;59.316;18.092;2023-10-31T12:49:20;6.33;;;1.53;;
7426;SDS011;3755;59.316;18.092;2023-10-31T12:51:54;6.67;;;1.53;;
7426;SDS011;3755;59.316;18.092;2023-10-31T12:54:28;7.70;;;1.60;;
7426;SDS011;3755;59.316;18.092;2023-10-31T12:56:58;3.13;;;1.30;;
7426;SDS011;3755;59.316;18.092;2023-10-31T12:59:26;2.27;;;1.30;;
7426;SDS011;3755;59.316;18.092;2023-10-31T13:01:53;2.67;;;1.40;;
7426;SDS011;3755;59.316;18.092;2023-10-31T13:04:24;3.37;;;1.30;;
7426;SDS011;3755;59.316;18.092;2023-10-31T13:06:56;1.57;;;1.13;;
7426;SDS011;3755;59.316;18.092;2023-10-31T13:09:29;1.73;;;1.13;;
7426;SDS011;3755;59.316;18.092;2023-10-31T13:11:57;2.70;;;1.33;;
7426;SDS011;3755;59.316;18.092;2023-10-31T13:14:26;2.60;;;1.43;;
7426;SDS011;3755;59.316;18.092;2023-10-31T13:16:53;1.77;;;1.13;;
7426;SDS011;3755;59.316;18.092;2023-10-31T13:19:20;2.30;;;1.00;;
7426;SDS011;3755;59.316;18.092;2023-10-31T13:21:47;1.83;;;1.23;;
7426;SDS011;3755;59.316;18.092;2023-10-31T13:24:14;6.27;;;1.33;;
7426;SDS011;3755;59.316;18.092;2023-10-31T13:26:42;2.73;;;1.17;;
7426;SDS011;3755;59.316;18.092;2023-10-31T13:29:10;3.27;;;1.20;;
7426;SDS011;3755;59.316;18.092;2023-10-31T13:31:37;1.80;;;1.00;;
7426;SDS011;3755;59.316;18.092;2023-10-31T13:34:04;2.80;;;1.10;;
7426;SDS011;3755;59.316;18.092;2023-10-31T13:36:31;1.10;;;0.80;;
7426;SDS011;3755;59.316;18.092;2023-10-31T13:38:58;1.90;;;0.90;;
7426;SDS011;3755;59.316;18.092;2023-10-31T13:41:26;1.27;;;0.80;;
7426;SDS011;3755;59.316;18.092;2023-10-31T13:43:54;1.20;;;0.70;;
7426;SDS011;3755;59.316;18.092;2023-10-31T13:46:21;2.63;;;0.80;;
7426;SDS011;3755;59.316;18.092;2023-10-31T13:48:48;3.80;;;1.87;;
7426;SDS011;3755;59.316;18.092;2023-10-31T13:51:15;4.37;;;1.87;;
7426;SDS011;3755;59.316;18.092;2023-10-31T13:53:44;4.07;;;1.80;;
7426;SDS011;3755;59.316;18.092;2023-10-31T13:56:11;1.57;;;0.80;;
7426;SDS011;3755;59.316;18.092;2023-10-31T13:58:38;2.73;;;1.00;;
7426;SDS011;3755;59.316;18.092;2023-10-31T14:01:06;2.10;;;0.80;;
7426;SDS011;3755;59.316;18.092;2023-10-31T14:03:33;1.27;;;0.63;;
7426;SDS011;3755;59.316;18.092;2023-10-31T14:06:01;0.57;;;0.50;;
7426;SDS011;3755;59.316;18.092;2023-10-31T14:08:29;1.70;;;0.80;;
7426;SDS011;3755;59.316;18.092;2023-10-31T14:10:56;0.97;;;0.67;;
7426;SDS011;3755;59.316;18.092;2023-10-31T14:13:23;0.93;;;0.63;;
7426;SDS011;3755;59.316;18.092;2023-10-31T14:15:50;2.80;;;0.70;;
7426;SDS011;3755;59.316;18.092;2023-10-31T14:18:18;0.80;;;0.70;;
7426;SDS011;3755;59.316;18.092;2023-10-31T14:20:45;1.43;;;0.80;;
7426;SDS011;3755;59.316;18.092;2023-10-31T14:23:12;2.03;;;1.20;;
7426;SDS011;3755;59.316;18.092;2023-10-31T14:25:39;1.03;;;0.73;;
7426;SDS011;3755;59.316;18.092;2023-10-31T14:28:06;2.13;;;1.00;;
7426;SDS011;3755;59.316;18.092;2023-10-31T14:30:33;1.27;;;0.70;;
7426;SDS011;3755;59.316;18.092;2023-10-31T14:33:00;0.80;;;0.70;;
7426;SDS011;3755;59.316;18.092;2023-10-31T14:35:28;1.50;;;0.90;;
7426;SDS011;3755;59.316;18.092;2023-10-31T14:37:55;0.70;;;0.53;;
7426;SDS011;3755;59.316;18.092;2023-10-31T14:40:22;1.67;;;1.13;;
7426;SDS011;3755;59.316;18.092;2023-10-31T14:42:49;2.27;;;1.50;;
7426;SDS011;3755;59.316;18.092;2023-10-31T14:45:16;5.63;;;1.50;;
7426;SDS011;3755;59.316;18.092;2023-10-31T14:47:43;2.40;;;0.93;;
7426;SDS011;3755;59.316;18.092;2023-10-31T14:50:10;2.07;;;1.20;;
7426;SDS011;3755;59.316;18.092;2023-10-31T14:52:39;1.20;;;0.70;;
7426;SDS011;3755;59.316;18.092;2023-10-31T14:55:06;1.10;;;0.80;;
7426;SDS011;3755;59.316;18.092;2023-10-31T14:57:34;1.00;;;0.53;;